createdAt,value
2022-08-07T00:02:36.277Z,50.66
2022-08-07T00:05:04.419Z,50.86
2022-08-07T00:07:40.311Z,51.22
2022-08-07T00:10:25.882Z,51.20
2022-08-07T00:12:59.921Z,51.33
2022-08-07T00:15:37.982Z,51.41
2022-08-07T00:18:19.492Z,51.48
2022-08-07T00:20:49.687Z,51.36
2022-08-07T00:23:18.540Z,51.36
2022-08-07T00:25:58.257Z,51.73
2022-08-07T00:28:33.711Z,52.00
2022-08-07T00:31:12.719Z,52.28
2022-08-07T00:33:47.426Z,52.33
2022-08-07T00:36:16.866Z,52.45
2022-08-07T00:38:45.256Z,52.29
2022-08-07T00:41:15.109Z,52.42
2022-08-07T00:44:00.667Z,52.51
2022-08-07T00:46:32.996Z,52.75
2022-08-07T00:49:03.458Z,53.25
2022-08-07T00:51:57.318Z,53.55
2022-08-07T00:54:20.650Z,53.81
2022-08-07T00:56:51.504Z,54.02
2022-08-07T00:59:35.053Z,54.26
2022-08-07T01:02:08.954Z,54.38
2022-08-07T01:04:43.459Z,54.27
2022-08-07T01:07:13.239Z,54.17
2022-08-07T01:10:06.537Z,54.19
2022-08-07T01:12:31.054Z,54.15
2022-08-07T01:15:00.926Z,54.49
2022-08-07T01:17:30.966Z,54.29
2022-08-07T01:20:06.564Z,54.02
2022-08-07T01:22:38.033Z,54.17
2022-08-07T01:25:53.691Z,54.15
2022-08-07T01:28:05.660Z,54.12
2022-08-07T01:30:36.012Z,54.17
2022-08-07T01:33:07.464Z,54.24
2022-08-07T01:35:53.115Z,53.97
2022-08-07T01:38:25.792Z,53.77
2022-08-07T01:41:02.292Z,54.22
2022-08-07T01:43:34.747Z,54.10
2022-08-07T01:46:12.319Z,54.16
2022-08-07T01:48:47.704Z,54.38
2022-08-07T01:52:00.923Z,54.42
2022-08-07T01:54:33.190Z,54.17
2022-08-07T01:57:24.774Z,54.04
2022-08-07T02:00:01.339Z,53.96
2022-08-07T02:03:12.566Z,54.04
2022-08-07T02:05:59.810Z,54.13
2022-08-07T02:08:34.157Z,54.33
2022-08-07T02:11:04.953Z,54.62
2022-08-07T02:13:57.534Z,54.62
2022-08-07T02:16:29.878Z,54.83
2022-08-07T02:19:05.384Z,54.72
2022-08-07T02:21:58.579Z,54.87
2022-08-07T02:24:29.936Z,54.96
2022-08-07T02:27:01.443Z,55.11
2022-08-07T02:29:34.415Z,55.31
2022-08-07T02:32:13.617Z,55.35
2022-08-07T02:34:51.201Z,55.34
2022-08-07T02:37:22.183Z,55.67
2022-08-07T02:40:02.331Z,55.81
2022-08-07T02:42:40.705Z,55.67
2022-08-07T02:45:57.569Z,56.10
2022-08-07T02:48:02.955Z,56.32
2022-08-07T02:50:35.458Z,56.19
2022-08-07T02:53:10.980Z,56.21
2022-08-07T02:56:03.933Z,56.10
2022-08-07T02:58:36.804Z,56.21
2022-08-07T03:01:18.658Z,56.30
2022-08-07T03:03:50.542Z,56.41
2022-08-07T03:06:33.246Z,56.36
2022-08-07T03:09:04.765Z,56.23
2022-08-07T03:11:38.404Z,55.98
2022-08-07T03:14:08.686Z,56.14
2022-08-07T03:16:38.551Z,56.25
2022-08-07T03:19:08.337Z,56.39
2022-08-07T03:21:37.463Z,56.37
2022-08-07T03:24:19.966Z,56.25
2022-08-07T03:26:59.748Z,56.25
2022-08-07T03:29:44.621Z,56.14
2022-08-07T03:32:29.782Z,56.55
2022-08-07T03:35:17.441Z,56.57
2022-08-07T03:37:56.670Z,56.75
2022-08-07T03:40:32.037Z,56.82
2022-08-07T03:43:13.639Z,56.71
2022-08-07T03:45:47.786Z,56.72
2022-08-07T03:48:19.152Z,57.02
2022-08-07T03:50:56.169Z,56.89
2022-08-07T03:53:50.205Z,56.88
2022-08-07T03:56:33.166Z,57.12
2022-08-07T03:59:08.644Z,57.29
2022-08-07T04:01:46.184Z,57.65
2022-08-07T04:04:18.193Z,57.69
2022-08-07T04:06:50.808Z,57.69
2022-08-07T04:09:23.477Z,57.94
2022-08-07T04:12:23.991Z,57.69
2022-08-07T04:14:46.146Z,57.47
2022-08-07T04:18:31.074Z,57.48
2022-08-07T04:20:10.410Z,57.68
2022-08-07T04:22:41.094Z,57.73
2022-08-07T04:25:24.297Z,57.69
2022-08-07T04:28:01.018Z,57.80
2022-08-07T04:30:43.337Z,57.65
2022-08-07T04:33:24.666Z,57.58
2022-08-07T04:35:54.732Z,57.45
2022-08-07T04:38:26.489Z,57.26
2022-08-07T04:40:56.854Z,57.21
2022-08-07T04:44:10.648Z,56.97
2022-08-07T04:47:04.601Z,56.94
2022-08-07T04:50:05.406Z,56.75
2022-08-07T04:52:54.415Z,56.63
2022-08-07T04:58:07.588Z,55.98
2022-08-07T04:59:01.582Z,55.36
2022-08-07T05:01:40.815Z,54.55
2022-08-07T05:04:17.369Z,53.93
2022-08-07T05:07:19.782Z,53.51
2022-08-07T05:09:59.785Z,53.07
2022-08-07T05:12:51.387Z,52.72
2022-08-07T05:15:31.352Z,52.62
2022-08-07T05:18:09.259Z,52.45
2022-08-07T05:20:42.728Z,52.32
2022-08-07T05:23:20.008Z,52.09
2022-08-07T05:26:13.328Z,51.74
2022-08-07T05:28:48.614Z,51.59
2022-08-07T05:31:22.938Z,51.17
2022-08-07T05:34:04.944Z,50.89
2022-08-07T05:36:42.163Z,51.29
2022-08-07T05:40:17.114Z,51.52
2022-08-07T05:42:12.388Z,51.48
2022-08-07T05:44:52.977Z,51.38
2022-08-07T05:47:38.608Z,51.52
2022-08-07T05:50:21.798Z,51.43
2022-08-07T05:52:50.272Z,51.64
2022-08-07T05:55:18.775Z,51.06
2022-08-07T05:57:48.152Z,50.77
2022-08-07T06:00:19.976Z,50.70
2022-08-07T06:02:55.680Z,50.16
2022-08-07T06:05:29.082Z,50.05
2022-08-07T06:08:13.071Z,50.13
2022-08-07T06:10:51.238Z,50.00
2022-08-07T06:14:11.624Z,49.84
2022-08-07T06:16:13.685Z,49.65
2022-08-07T06:18:51.447Z,49.40
2022-08-07T06:22:14.368Z,49.11
2022-08-07T06:24:52.491Z,48.74
2022-08-07T06:27:03.690Z,48.41
2022-08-07T06:29:34.305Z,48.13
2022-08-07T06:32:02.949Z,47.90
2022-08-07T06:34:33.020Z,47.58
2022-08-07T06:37:02.442Z,47.41
2022-08-07T06:40:16.776Z,47.10
2022-08-07T06:42:26.595Z,46.94
2022-08-07T06:45:17.946Z,46.96
2022-08-07T06:47:58.372Z,46.70
2022-08-07T06:50:33.610Z,46.58
2022-08-07T06:53:07.217Z,46.54
2022-08-07T06:56:00.898Z,46.35
2022-08-07T06:58:32.190Z,45.81
2022-08-07T07:01:07.711Z,45.35
2022-08-07T07:03:49.952Z,45.27
2022-08-07T07:06:26.624Z,45.02
2022-08-07T07:08:56.738Z,45.00
2022-08-07T07:12:08.673Z,44.85
2022-08-07T07:14:16.967Z,44.72
2022-08-07T07:16:50.885Z,44.67
2022-08-07T07:19:56.263Z,44.41
2022-08-07T07:22:36.513Z,44.11
2022-08-07T07:26:31.152Z,43.42
2022-08-07T07:28:29.916Z,42.90
2022-08-07T07:30:57.668Z,42.78
2022-08-07T07:33:29.020Z,42.75
2022-08-07T07:36:05.475Z,42.40
2022-08-07T07:38:45.959Z,42.23
2022-08-07T07:41:17.566Z,41.98
2022-08-07T07:44:17.643Z,41.55
2022-08-07T07:46:55.702Z,41.14
2022-08-07T07:50:36.038Z,40.93
2022-08-07T07:52:21.955Z,40.51
2022-08-07T07:54:54.312Z,40.01
2022-08-07T07:57:52.223Z,39.55
2022-08-07T08:00:21.133Z,39.34
2022-08-07T08:03:08.051Z,38.73
2022-08-07T08:05:42.964Z,38.10
2022-08-07T08:08:35.206Z,37.78
2022-08-07T08:11:08.497Z,36.97
2022-08-07T08:13:55.453Z,36.75
2022-08-07T08:16:39.117Z,36.49
2022-08-07T08:19:17.782Z,36.33
2022-08-07T08:22:18.937Z,35.55
2022-08-07T08:25:24.996Z,35.40
2022-08-07T08:28:01.982Z,35.22
2022-08-07T08:30:37.533Z,34.78
2022-08-07T08:33:18.855Z,34.58
2022-08-07T08:35:51.879Z,34.38
2022-08-07T08:38:29.562Z,34.20
2022-08-07T08:41:57.587Z,34.03
2022-08-07T08:45:00.728Z,34.13
2022-08-07T08:47:47.401Z,34.16
2022-08-07T08:50:39.469Z,34.26
2022-08-07T08:53:32.649Z,34.94
2022-08-07T08:56:08.620Z,35.57
2022-08-07T08:59:17.005Z,36.19
2022-08-07T09:02:08.926Z,36.41
2022-08-07T09:05:10.091Z,36.47
2022-08-07T09:07:58.190Z,36.60
2022-08-07T09:10:44.343Z,36.40
2022-08-07T09:13:35.249Z,35.70
2022-08-07T09:16:39.771Z,34.97
2022-08-07T09:19:51.132Z,34.31
2022-08-07T09:24:27.522Z,34.12
2022-08-07T09:25:17.598Z,34.21
2022-08-07T09:28:01.231Z,34.02
2022-08-07T09:31:01.070Z,34.13
2022-08-07T09:33:59.834Z,34.34
2022-08-07T09:36:36.934Z,34.30
2022-08-07T09:39:55.093Z,34.06
2022-08-07T09:42:42.251Z,33.69
2022-08-07T09:47:51.686Z,33.65
2022-08-07T09:48:19.125Z,33.72
2022-08-07T09:50:56.546Z,33.84
2022-08-07T09:53:40.487Z,33.71
2022-08-07T09:56:44.158Z,33.72
2022-08-07T09:59:44.599Z,33.67
2022-08-07T10:02:55.309Z,33.28
2022-08-07T10:06:00.188Z,32.73
2022-08-07T10:08:52.183Z,32.41
2022-08-07T10:12:01.579Z,31.95
2022-08-07T10:15:00.247Z,31.95
2022-08-07T10:18:03.067Z,31.63
2022-08-07T10:20:50.178Z,31.46
2022-08-07T10:24:05.650Z,31.49
2022-08-07T10:27:00.421Z,31.32
2022-08-07T10:29:45.799Z,31.32
2022-08-07T10:32:51.339Z,31.30
2022-08-07T10:36:05.584Z,31.02
2022-08-07T10:39:12.851Z,30.87
2022-08-07T10:42:00.461Z,30.81
2022-08-07T10:44:50.050Z,30.75
2022-08-07T10:47:53.122Z,30.55
2022-08-07T10:50:31.845Z,30.35
2022-08-07T10:53:21.587Z,30.02
2022-08-07T10:56:20.907Z,30.07
2022-08-07T10:59:30.466Z,30.14
2022-08-07T11:02:27.397Z,30.20
2022-08-07T11:05:35.638Z,29.86
2022-08-07T11:08:40.363Z,29.92
2022-08-07T11:11:14.521Z,29.87
2022-08-07T11:14:45.906Z,30.08
2022-08-07T11:17:01.103Z,30.12
2022-08-07T11:19:46.345Z,30.10
2022-08-07T11:22:37.134Z,30.25
2022-08-07T11:25:36.224Z,29.87
2022-08-07T11:28:25.435Z,29.77
2022-08-07T11:31:17.444Z,29.67
2022-08-07T11:34:06.909Z,29.87
2022-08-07T11:36:56.726Z,29.80
2022-08-07T11:40:00.609Z,29.69
2022-08-07T11:42:59.180Z,29.69
2022-08-07T11:45:49.838Z,29.37
2022-08-07T11:48:53.833Z,29.61
2022-08-07T11:51:58.641Z,29.59
2022-08-07T11:54:55.117Z,29.56
2022-08-07T11:58:00.203Z,29.49
2022-08-07T12:01:02.214Z,29.53
2022-08-07T12:04:03.622Z,29.51
2022-08-07T12:06:57.229Z,29.47
2022-08-07T12:09:36.139Z,29.20
2022-08-07T12:12:12.051Z,29.21
2022-08-07T12:14:55.277Z,29.23
2022-08-07T12:17:37.939Z,28.97
2022-08-07T12:20:30.621Z,28.90
2022-08-07T12:23:37.348Z,28.75
2022-08-07T12:26:29.813Z,28.50
2022-08-07T12:29:03.718Z,28.65
2022-08-07T12:32:01.972Z,28.52
2022-08-07T12:34:37.576Z,28.81
2022-08-07T12:37:22.953Z,28.70
2022-08-07T12:39:58.857Z,28.67
2022-08-07T12:42:31.816Z,28.51
2022-08-07T12:45:11.924Z,28.51
2022-08-07T12:47:46.381Z,28.27
2022-08-07T12:50:49.188Z,28.20
2022-08-07T12:53:18.845Z,28.04
2022-08-07T12:56:03.241Z,28.07
2022-08-07T12:58:39.624Z,27.93
2022-08-07T13:01:17.103Z,27.76
2022-08-07T13:04:03.140Z,27.89
2022-08-07T13:07:01.783Z,27.80
2022-08-07T13:10:21.572Z,27.53
2022-08-07T13:12:54.264Z,27.36
2022-08-07T13:15:36.971Z,26.92
2022-08-07T13:18:26.424Z,27.11
2022-08-07T13:21:05.226Z,26.77
2022-08-07T13:24:01.021Z,26.69
2022-08-07T13:26:49.508Z,26.46
2022-08-07T13:29:27.535Z,26.72
2022-08-07T13:32:31.719Z,26.55
2022-08-07T13:35:15.801Z,26.60
2022-08-07T13:38:19.279Z,26.75
2022-08-07T13:41:22.042Z,26.76
2022-08-07T13:43:56.928Z,26.82
2022-08-07T13:46:33.191Z,26.88
2022-08-07T13:49:08.663Z,27.02
2022-08-07T13:52:04.967Z,27.11
2022-08-07T13:54:49.231Z,26.97
2022-08-07T13:57:23.942Z,27.00
2022-08-07T14:00:26.214Z,26.88
2022-08-07T14:02:57.364Z,26.72
2022-08-07T14:05:37.164Z,26.67
2022-08-07T14:08:09.397Z,26.67
2022-08-07T14:10:42.189Z,26.82
2022-08-07T14:13:18.675Z,26.67
2022-08-07T14:15:57.042Z,26.71
2022-08-07T14:18:33.185Z,26.89
2022-08-07T14:22:01.145Z,27.01
2022-08-07T14:24:05.375Z,27.11
2022-08-07T14:26:50.628Z,27.09
2022-08-07T14:30:07.430Z,27.06
2022-08-07T14:32:16.472Z,27.05
2022-08-07T14:34:49.192Z,27.02
2022-08-07T14:37:32.896Z,27.12
2022-08-07T14:40:17.552Z,27.12
2022-08-07T14:45:59.971Z,27.08
2022-08-07T14:48:40.744Z,27.14
2022-08-07T14:51:18.147Z,27.22
2022-08-07T14:54:09.704Z,27.37
2022-08-07T14:56:43.840Z,27.64
2022-08-07T15:00:03.252Z,27.70
2022-08-07T15:02:31.951Z,27.61
2022-08-07T15:07:55.715Z,27.65
2022-08-07T15:10:29.987Z,27.74
2022-08-07T15:15:58.088Z,28.02
2022-08-07T15:18:41.719Z,28.07
2022-08-07T15:21:58.706Z,27.99
2022-08-07T15:25:14.522Z,28.06
2022-08-07T15:27:19.626Z,28.29
2022-08-07T15:30:08.586Z,28.55
2022-08-07T15:32:51.165Z,28.54
2022-08-07T15:36:00.818Z,28.63
2022-08-07T15:38:33.158Z,28.73
2022-08-07T15:44:12.758Z,28.82
2022-08-07T15:46:51.769Z,28.88
2022-08-07T15:50:05.215Z,28.95
2022-08-07T15:52:30.265Z,29.03
2022-08-07T15:55:08.710Z,29.12
2022-08-07T15:57:47.481Z,29.30
2022-08-07T16:00:33.622Z,29.41
2022-08-07T16:03:21.503Z,29.53
2022-08-07T16:05:58.903Z,29.38
2022-08-07T16:08:37.779Z,29.48
2022-08-07T16:11:27.564Z,29.40
2022-08-07T16:14:33.303Z,29.60
2022-08-07T16:18:02.552Z,29.72
2022-08-07T16:20:33.730Z,29.66
2022-08-07T16:23:52.949Z,29.82
2022-08-07T16:26:59.612Z,30.25
2022-08-07T16:30:09.620Z,30.18
2022-08-07T16:34:02.827Z,29.95
2022-08-07T16:36:19.940Z,30.12
2022-08-07T16:39:00.911Z,30.13
2022-08-07T16:41:41.082Z,30.23
2022-08-07T16:44:40.415Z,30.17
2022-08-07T16:47:41.186Z,30.29
2022-08-07T16:50:35.679Z,30.26
2022-08-07T16:54:02.259Z,30.32
2022-08-07T16:56:38.880Z,30.30
2022-08-07T16:59:19.042Z,30.47
2022-08-07T17:03:04.991Z,30.54
2022-08-07T17:06:29.000Z,30.51
2022-08-07T17:09:09.328Z,30.64
2022-08-07T17:12:04.326Z,30.60
2022-08-07T17:14:58.809Z,30.65
2022-08-07T17:17:47.052Z,30.67
2022-08-07T17:20:29.977Z,30.74
2022-08-07T17:23:16.779Z,30.83
2022-08-07T17:25:53.735Z,30.97
2022-08-07T17:28:35.687Z,31.02
2022-08-07T17:31:18.064Z,31.26
2022-08-07T17:34:32.702Z,31.33
2022-08-07T17:36:58.166Z,31.53
2022-08-07T17:39:57.794Z,31.60
2022-08-07T17:42:58.652Z,31.60
2022-08-07T17:45:42.481Z,31.69
2022-08-07T17:48:16.807Z,31.73
2022-08-07T17:51:21.326Z,31.78
2022-08-07T17:54:29.712Z,31.71
2022-08-07T17:57:18.980Z,31.64
2022-08-07T17:59:53.044Z,31.56
2022-08-07T18:02:53.814Z,31.55
2022-08-07T18:06:02.336Z,31.55
2022-08-07T18:09:01.360Z,31.72
2022-08-07T18:12:07.681Z,31.86
2022-08-07T18:14:44.985Z,31.93
2022-08-07T18:18:44.949Z,31.86
2022-08-07T18:21:07.641Z,31.75
2022-08-07T18:23:42.380Z,31.57
2022-08-07T18:26:05.417Z,31.56
2022-08-07T18:28:58.374Z,31.61
2022-08-07T18:31:50.378Z,31.64
2022-08-07T18:35:00.625Z,31.70
2022-08-07T18:38:57.384Z,31.75
2022-08-07T18:40:59.285Z,31.88
2022-08-07T18:43:58.168Z,32.02
2022-08-07T18:46:48.105Z,32.02
2022-08-07T18:50:30.075Z,31.97
2022-08-07T18:52:53.946Z,31.95
2022-08-07T18:55:43.047Z,32.08
2022-08-07T18:58:32.954Z,32.18
2022-08-07T19:02:32.190Z,32.21
2022-08-07T19:04:54.524Z,32.33
2022-08-07T19:07:51.881Z,32.50
2022-08-07T19:10:51.585Z,32.54
2022-08-07T19:13:43.040Z,32.67
2022-08-07T19:17:05.708Z,32.69
2022-08-07T19:19:59.382Z,32.90
2022-08-07T19:22:32.021Z,33.08
2022-08-07T19:25:06.559Z,33.22
2022-08-07T19:28:30.630Z,33.34
2022-08-07T19:31:03.822Z,33.35
2022-08-07T19:33:35.207Z,33.41
2022-08-07T19:36:08.798Z,33.29
2022-08-07T19:38:52.971Z,33.38
2022-08-07T19:41:44.370Z,33.33
2022-08-07T19:44:21.245Z,33.34
2022-08-07T19:46:57.513Z,33.32
2022-08-07T19:49:57.369Z,33.29
2022-08-07T19:52:18.736Z,33.38
2022-08-07T19:54:56.631Z,33.38
2022-08-07T19:58:02.865Z,33.62
2022-08-07T20:00:39.913Z,33.55
2022-08-07T20:03:33.698Z,33.59
2022-08-07T20:06:06.272Z,33.65
2022-08-07T20:08:50.335Z,33.76
2022-08-07T20:11:34.334Z,33.71
2022-08-07T20:14:23.122Z,33.68
2022-08-07T20:17:04.043Z,33.80
2022-08-07T20:19:48.034Z,33.98
2022-08-07T20:22:33.828Z,33.89
2022-08-07T20:25:19.275Z,33.82
2022-08-07T20:27:57.916Z,33.95
2022-08-07T20:30:40.770Z,34.03
2022-08-07T20:33:24.389Z,34.13
2022-08-07T20:36:08.029Z,34.31
2022-08-07T20:38:53.630Z,34.29
2022-08-07T20:41:34.214Z,34.25
2022-08-07T20:44:12.572Z,34.22
2022-08-07T20:46:45.188Z,34.36
2022-08-07T20:50:00.721Z,34.50
2022-08-07T20:52:16.393Z,34.57
2022-08-07T20:54:55.399Z,34.57
2022-08-07T20:57:38.681Z,34.72
2022-08-07T21:00:21.899Z,34.79
2022-08-07T21:03:01.375Z,34.96
2022-08-07T21:05:52.803Z,35.27
2022-08-07T21:08:38.158Z,35.24
2022-08-07T21:11:14.779Z,35.28
2022-08-07T21:14:16.270Z,35.35
2022-08-07T21:16:56.828Z,35.49
2022-08-07T21:19:51.154Z,35.65
2022-08-07T21:22:31.484Z,35.77
2022-08-07T21:25:20.657Z,35.91
2022-08-07T21:28:50.024Z,36.11
2022-08-07T21:32:42.075Z,36.24
2022-08-07T21:34:31.849Z,36.36
2022-08-07T21:37:09.203Z,36.69
2022-08-07T21:40:03.257Z,36.77
2022-08-07T21:42:46.174Z,36.93
2022-08-07T21:46:08.584Z,36.87
2022-08-07T21:48:42.324Z,36.96
2022-08-07T21:51:20.079Z,37.04
2022-08-07T21:54:23.113Z,37.04
2022-08-07T21:57:39.364Z,37.04
2022-08-07T22:00:22.189Z,37.19
2022-08-07T22:03:31.639Z,37.23
2022-08-07T22:06:30.442Z,37.25
2022-08-07T22:09:11.025Z,37.31
2022-08-07T22:12:05.666Z,37.41
2022-08-07T22:15:00.162Z,37.51
2022-08-07T22:17:35.940Z,37.57
2022-08-07T22:20:23.959Z,37.71
2022-08-07T22:23:01.853Z,37.82
2022-08-07T22:25:36.061Z,37.91
2022-08-07T22:28:31.779Z,37.95
2022-08-07T22:31:58.972Z,37.86
2022-08-07T22:34:35.491Z,37.76
2022-08-07T22:37:12.548Z,37.93
2022-08-07T22:39:59.801Z,37.72
2022-08-07T22:42:35.278Z,37.80
2022-08-07T22:45:10.916Z,37.84
2022-08-07T22:48:31.757Z,37.70
2022-08-07T22:51:22.526Z,37.74
2022-08-07T22:54:16.166Z,37.79
2022-08-07T22:57:17.155Z,37.81
2022-08-07T23:00:01.072Z,37.83
2022-08-07T23:02:48.801Z,37.87
2022-08-07T23:06:09.905Z,37.94
2022-08-07T23:08:46.208Z,37.81
2022-08-07T23:11:35.196Z,38.00
2022-08-07T23:14:24.518Z,37.95
2022-08-07T23:17:22.449Z,38.04
2022-08-07T23:20:52.319Z,38.04
2022-08-07T23:24:05.232Z,38.05
2022-08-07T23:26:23.564Z,38.26
2022-08-07T23:28:54.601Z,38.33
2022-08-07T23:34:19.498Z,38.45
2022-08-07T23:35:14.098Z,38.50
2022-08-07T23:38:01.160Z,38.58
2022-08-07T23:40:43.296Z,38.76
2022-08-07T23:43:59.183Z,39.10
2022-08-07T23:46:35.916Z,39.41
2022-08-07T23:49:49.819Z,39.47
2022-08-07T23:52:58.477Z,39.62
2022-08-07T23:55:52.270Z,39.63
2022-08-07T23:58:35.166Z,39.66
